Terminal Aerodrome Forecast
Issued by NWS Pittsburgh, PA

Current Version | Previous Version | Graphics & Text | Print | Product List | Glossary On
Versions: 1 2 3 4 5 6 7 8 9 10 11 12 13 14 15 16 17 18 19 20 21 22 23 24 25 26 27 28 29 30 31
836
FTUS41 KPBZ 120857 AAA
TAFPIT
TAF AMD
KPIT 120857Z 1209/1312 00000KT P6SM FEW040
     FM121800 25008KT 5SM -SN BKN025 OVC030
     FM130100 28015G28KT 4SM -SHSN BKN015 PROB30 1301/1304 1SM -SHSN
      BKN007
     FM130700 30012G25KT P6SM VCSH BKN022=

USA.gov is the U.S. government's official web portal to all federal, state and local government web resources and services.